sensor_id;sensor_type;location;lat;lon;timestamp;temperature;humidity
39033;DHT22;24794;51.982;5.878;2022-07-29T00:00:16;19.20;84.70
39033;DHT22;24794;51.982;5.878;2022-07-29T00:01:16;19.20;85.10
39033;DHT22;24794;51.982;5.878;2022-07-29T00:02:17;19.10;84.80
39033;DHT22;24794;51.982;5.878;2022-07-29T00:03:18;19.10;84.90
39033;DHT22;24794;51.982;5.878;2022-07-29T00:04:18;19.10;84.90
39033;DHT22;24794;51.982;5.878;2022-07-29T00:05:20;19.20;85.10
39033;DHT22;24794;51.982;5.878;2022-07-29T00:06:20;19.10;85.10
39033;DHT22;24794;51.982;5.878;2022-07-29T00:07:21;19.10;85.10
39033;DHT22;24794;51.982;5.878;2022-07-29T00:08:22;19.10;85.20
39033;DHT22;24794;51.982;5.878;2022-07-29T00:09:22;19.10;85.20
39033;DHT22;24794;51.982;5.878;2022-07-29T00:10:23;19.10;85.20
39033;DHT22;24794;51.982;5.878;2022-07-29T00:11:23;19.00;85.20
39033;DHT22;24794;51.982;5.878;2022-07-29T00:12:24;19.10;85.30
39033;DHT22;24794;51.982;5.878;2022-07-29T00:13:25;19.00;85.30
39033;DHT22;24794;51.982;5.878;2022-07-29T00:14:28;19.00;85.30
39033;DHT22;24794;51.982;5.878;2022-07-29T00:15:29;19.10;85.40
39033;DHT22;24794;51.982;5.878;2022-07-29T00:16:30;19.10;85.50
39033;DHT22;24794;51.982;5.878;2022-07-29T00:17:30;19.00;85.40
39033;DHT22;24794;51.982;5.878;2022-07-29T00:18:31;19.00;85.40
39033;DHT22;24794;51.982;5.878;2022-07-29T00:19:32;19.00;85.50
39033;DHT22;24794;51.982;5.878;2022-07-29T00:20:34;19.00;85.60
39033;DHT22;24794;51.982;5.878;2022-07-29T00:21:35;19.00;85.60
39033;DHT22;24794;51.982;5.878;2022-07-29T00:22:38;19.00;85.70
39033;DHT22;24794;51.982;5.878;2022-07-29T00:23:39;19.00;85.80
39033;DHT22;24794;51.982;5.878;2022-07-29T00:24:40;19.00;85.80
39033;DHT22;24794;51.982;5.878;2022-07-29T00:25:40;19.00;85.80
39033;DHT22;24794;51.982;5.878;2022-07-29T00:26:41;19.00;85.80
39033;DHT22;24794;51.982;5.878;2022-07-29T00:27:42;19.00;86.00
39033;DHT22;24794;51.982;5.878;2022-07-29T00:28:42;19.00;86.00
39033;DHT22;24794;51.982;5.878;2022-07-29T00:29:43;18.90;86.10
39033;DHT22;24794;51.982;5.878;2022-07-29T00:30:43;18.90;86.10
39033;DHT22;24794;51.982;5.878;2022-07-29T00:31:44;19.00;86.10
39033;DHT22;24794;51.982;5.878;2022-07-29T00:32:45;18.90;86.10
39033;DHT22;24794;51.982;5.878;2022-07-29T00:33:45;18.90;86.20
39033;DHT22;24794;51.982;5.878;2022-07-29T00:34:46;18.90;86.20
39033;DHT22;24794;51.982;5.878;2022-07-29T00:36:05;18.90;86.20
39033;DHT22;24794;51.982;5.878;2022-07-29T00:37:05;18.90;86.30
39033;DHT22;24794;51.982;5.878;2022-07-29T00:38:06;18.90;86.40
39033;DHT22;24794;51.982;5.878;2022-07-29T00:39:07;18.90;86.50
39033;DHT22;24794;51.982;5.878;2022-07-29T00:40:08;18.90;86.50
39033;DHT22;24794;51.982;5.878;2022-07-29T00:41:08;18.90;86.60
39033;DHT22;24794;51.982;5.878;2022-07-29T00:42:09;18.80;86.60
39033;DHT22;24794;51.982;5.878;2022-07-29T00:43:10;18.90;86.70
39033;DHT22;24794;51.982;5.878;2022-07-29T00:44:11;18.80;86.60
39033;DHT22;24794;51.982;5.878;2022-07-29T00:45:12;18.80;86.60
39033;DHT22;24794;51.982;5.878;2022-07-29T00:46:13;18.80;86.60
39033;DHT22;24794;51.982;5.878;2022-07-29T00:47:14;18.80;86.60
39033;DHT22;24794;51.982;5.878;2022-07-29T00:48:14;18.80;86.70
39033;DHT22;24794;51.982;5.878;2022-07-29T00:49:15;18.80;86.70
39033;DHT22;24794;51.982;5.878;2022-07-29T00:50:16;18.90;86.80
39033;DHT22;24794;51.982;5.878;2022-07-29T00:51:16;18.90;86.80
39033;DHT22;24794;51.982;5.878;2022-07-29T00:52:17;18.80;86.70
39033;DHT22;24794;51.982;5.878;2022-07-29T00:53:19;18.80;86.80
39033;DHT22;24794;51.982;5.878;2022-07-29T00:54:20;18.80;86.90
39033;DHT22;24794;51.982;5.878;2022-07-29T00:55:21;18.80;86.90
39033;DHT22;24794;51.982;5.878;2022-07-29T00:56:21;18.80;87.10
39033;DHT22;24794;51.982;5.878;2022-07-29T00:57:22;18.80;87.00
39033;DHT22;24794;51.982;5.878;2022-07-29T00:58:24;18.80;87.00
39033;DHT22;24794;51.982;5.878;2022-07-29T00:59:26;18.80;87.00
39033;DHT22;24794;51.982;5.878;2022-07-29T01:00:30;18.80;87.00
39033;DHT22;24794;51.982;5.878;2022-07-29T01:01:30;18.80;87.00
39033;DHT22;24794;51.982;5.878;2022-07-29T01:02:31;18.80;87.00
39033;DHT22;24794;51.982;5.878;2022-07-29T01:03:32;18.80;87.00
39033;DHT22;24794;51.982;5.878;2022-07-29T01:04:33;18.80;87.10
39033;DHT22;24794;51.982;5.878;2022-07-29T01:05:34;18.80;87.10
39033;DHT22;24794;51.982;5.878;2022-07-29T01:06:35;18.80;87.10
39033;DHT22;24794;51.982;5.878;2022-07-29T01:07:36;18.80;87.20
39033;DHT22;24794;51.982;5.878;2022-07-29T01:08:37;18.80;87.20
39033;DHT22;24794;51.982;5.878;2022-07-29T01:09:39;18.80;87.30
39033;DHT22;24794;51.982;5.878;2022-07-29T01:10:40;18.80;87.40
39033;DHT22;24794;51.982;5.878;2022-07-29T01:11:43;18.80;87.30
39033;DHT22;24794;51.982;5.878;2022-07-29T01:12:48;18.80;87.40
39033;DHT22;24794;51.982;5.878;2022-07-29T01:13:49;18.80;87.40
39033;DHT22;24794;51.982;5.878;2022-07-29T01:14:50;18.80;87.40
39033;DHT22;24794;51.982;5.878;2022-07-29T01:15:57;18.80;87.40
39033;DHT22;24794;51.982;5.878;2022-07-29T01:17:02;18.80;87.50
39033;DHT22;24794;51.982;5.878;2022-07-29T01:18:30;18.80;87.50
39033;DHT22;24794;51.982;5.878;2022-07-29T01:30:26;18.80;87.50
39033;DHT22;24794;51.982;5.878;2022-07-29T01:32:47;18.80;87.60
39033;DHT22;24794;51.982;5.878;2022-07-29T01:33:55;18.80;87.50
39033;DHT22;24794;51.982;5.878;2022-07-29T01:35:05;18.80;87.60
39033;DHT22;24794;51.982;5.878;2022-07-29T01:36:20;18.80;87.70
39033;DHT22;24794;51.982;5.878;2022-07-29T01:38:34;18.80;87.70
39033;DHT22;24794;51.982;5.878;2022-07-29T01:39:37;18.80;87.70
39033;DHT22;24794;51.982;5.878;2022-07-29T01:40:49;18.70;87.80
39033;DHT22;24794;51.982;5.878;2022-07-29T01:43:09;18.70;87.90
39033;DHT22;24794;51.982;5.878;2022-07-29T01:44:20;18.70;88.00
39033;DHT22;24794;51.982;5.878;2022-07-29T01:45:39;18.70;87.90
39033;DHT22;24794;51.982;5.878;2022-07-29T01:46:47;18.70;88.00
39033;DHT22;24794;51.982;5.878;2022-07-29T01:48:52;18.70;88.00
39033;DHT22;24794;51.982;5.878;2022-07-29T01:49:35;18.70;88.10
39033;DHT22;24794;51.982;5.878;2022-07-29T01:50:50;18.70;88.10
39033;DHT22;24794;51.982;5.878;2022-07-29T01:51:57;18.70;88.10
39033;DHT22;24794;51.982;5.878;2022-07-29T01:53:01;18.70;88.10
39033;DHT22;24794;51.982;5.878;2022-07-29T01:54:10;18.70;88.10
39033;DHT22;24794;51.982;5.878;2022-07-29T01:55:15;18.60;88.10
39033;DHT22;24794;51.982;5.878;2022-07-29T01:56:18;18.70;88.20
39033;DHT22;24794;51.982;5.878;2022-07-29T01:57:23;18.70;88.20
39033;DHT22;24794;51.982;5.878;2022-07-29T01:58:27;18.70;88.20
39033;DHT22;24794;51.982;5.878;2022-07-29T01:59:29;18.70;88.30
39033;DHT22;24794;51.982;5.878;2022-07-29T02:00:32;18.70;88.40
39033;DHT22;24794;51.982;5.878;2022-07-29T02:01:35;18.60;88.40
39033;DHT22;24794;51.982;5.878;2022-07-29T02:02:38;18.60;88.50
39033;DHT22;24794;51.982;5.878;2022-07-29T02:03:42;18.60;88.60
39033;DHT22;24794;51.982;5.878;2022-07-29T02:04:45;18.60;88.70
39033;DHT22;24794;51.982;5.878;2022-07-29T02:05:49;18.60;88.80
39033;DHT22;24794;51.982;5.878;2022-07-29T02:06:53;18.60;88.90
39033;DHT22;24794;51.982;5.878;2022-07-29T02:07:55;18.60;89.00
39033;DHT22;24794;51.982;5.878;2022-07-29T02:08:58;18.60;89.10
39033;DHT22;24794;51.982;5.878;2022-07-29T02:10:00;18.60;89.10
39033;DHT22;24794;51.982;5.878;2022-07-29T02:11:03;18.60;89.20
39033;DHT22;24794;51.982;5.878;2022-07-29T02:12:06;18.60;89.30
39033;DHT22;24794;51.982;5.878;2022-07-29T02:13:07;18.60;89.30
39033;DHT22;24794;51.982;5.878;2022-07-29T02:14:10;18.60;89.30
39033;DHT22;24794;51.982;5.878;2022-07-29T02:15:13;18.60;89.40
39033;DHT22;24794;51.982;5.878;2022-07-29T02:16:16;18.70;89.40
39033;DHT22;24794;51.982;5.878;2022-07-29T02:17:25;18.70;89.30
39033;DHT22;24794;51.982;5.878;2022-07-29T02:18:28;18.70;89.30
39033;DHT22;24794;51.982;5.878;2022-07-29T02:19:32;18.70;89.20
39033;DHT22;24794;51.982;5.878;2022-07-29T02:20:34;18.70;89.10
39033;DHT22;24794;51.982;5.878;2022-07-29T02:21:35;18.70;89.10
39033;DHT22;24794;51.982;5.878;2022-07-29T02:22:38;18.70;89.10
39033;DHT22;24794;51.982;5.878;2022-07-29T02:23:39;18.70;89.10
39033;DHT22;24794;51.982;5.878;2022-07-29T02:24:40;18.70;89.20
39033;DHT22;24794;51.982;5.878;2022-07-29T02:25:42;18.70;89.30
39033;DHT22;24794;51.982;5.878;2022-07-29T02:26:44;18.70;89.50
39033;DHT22;24794;51.982;5.878;2022-07-29T02:27:45;18.70;89.70
39033;DHT22;24794;51.982;5.878;2022-07-29T02:28:49;18.70;89.80
39033;DHT22;24794;51.982;5.878;2022-07-29T02:29:51;18.70;89.90
39033;DHT22;24794;51.982;5.878;2022-07-29T02:30:54;18.70;90.20
39033;DHT22;24794;51.982;5.878;2022-07-29T02:31:57;18.70;90.00
39033;DHT22;24794;51.982;5.878;2022-07-29T02:33:00;18.70;90.00
39033;DHT22;24794;51.982;5.878;2022-07-29T02:34:06;18.70;90.10
39033;DHT22;24794;51.982;5.878;2022-07-29T02:35:09;18.70;90.10
39033;DHT22;24794;51.982;5.878;2022-07-29T02:36:10;18.60;90.10
39033;DHT22;24794;51.982;5.878;2022-07-29T02:37:12;18.60;90.10
39033;DHT22;24794;51.982;5.878;2022-07-29T02:38:15;18.60;90.20
39033;DHT22;24794;51.982;5.878;2022-07-29T02:39:34;18.60;90.20
39033;DHT22;24794;51.982;5.878;2022-07-29T02:40:38;18.60;90.20
39033;DHT22;24794;51.982;5.878;2022-07-29T02:41:45;18.70;90.40
39033;DHT22;24794;51.982;5.878;2022-07-29T02:42:47;18.60;90.40
39033;DHT22;24794;51.982;5.878;2022-07-29T02:43:50;18.70;90.50
39033;DHT22;24794;51.982;5.878;2022-07-29T02:44:52;18.70;90.50
39033;DHT22;24794;51.982;5.878;2022-07-29T02:45:53;18.70;90.50
39033;DHT22;24794;51.982;5.878;2022-07-29T02:47:02;18.70;90.60
39033;DHT22;24794;51.982;5.878;2022-07-29T02:48:12;18.70;90.70
39033;DHT22;24794;51.982;5.878;2022-07-29T02:50:38;18.60;90.70
39033;DHT22;24794;51.982;5.878;2022-07-29T02:51:43;18.60;90.70
39033;DHT22;24794;51.982;5.878;2022-07-29T02:53:01;18.60;90.80
39033;DHT22;24794;51.982;5.878;2022-07-29T02:54:07;18.60;90.90
39033;DHT22;24794;51.982;5.878;2022-07-29T02:56:16;18.50;90.80
39033;DHT22;24794;51.982;5.878;2022-07-29T02:57:34;18.50;90.90
39033;DHT22;24794;51.982;5.878;2022-07-29T02:58:49;18.50;91.10
39033;DHT22;24794;51.982;5.878;2022-07-29T02:59:57;18.50;91.10
39033;DHT22;24794;51.982;5.878;2022-07-29T03:01:14;18.40;91.20
39033;DHT22;24794;51.982;5.878;2022-07-29T03:02:16;18.40;91.40
39033;DHT22;24794;51.982;5.878;2022-07-29T03:03:20;18.40;91.40
39033;DHT22;24794;51.982;5.878;2022-07-29T03:04:24;18.40;91.30
39033;DHT22;24794;51.982;5.878;2022-07-29T03:05:26;18.40;91.30
39033;DHT22;24794;51.982;5.878;2022-07-29T03:06:28;18.40;91.40
39033;DHT22;24794;51.982;5.878;2022-07-29T03:07:29;18.40;91.40
39033;DHT22;24794;51.982;5.878;2022-07-29T03:08:31;18.40;91.50
39033;DHT22;24794;51.982;5.878;2022-07-29T03:09:32;18.30;91.50
39033;DHT22;24794;51.982;5.878;2022-07-29T03:10:34;18.30;91.60
39033;DHT22;24794;51.982;5.878;2022-07-29T03:11:35;18.30;91.70
39033;DHT22;24794;51.982;5.878;2022-07-29T03:12:37;18.30;91.90
39033;DHT22;24794;51.982;5.878;2022-07-29T03:13:38;18.30;91.90
39033;DHT22;24794;51.982;5.878;2022-07-29T03:14:39;18.30;91.90
39033;DHT22;24794;51.982;5.878;2022-07-29T03:15:42;18.30;91.90
39033;DHT22;24794;51.982;5.878;2022-07-29T03:16:44;18.20;92.00
39033;DHT22;24794;51.982;5.878;2022-07-29T03:17:45;18.20;92.10
39033;DHT22;24794;51.982;5.878;2022-07-29T03:18:47;18.20;92.10
39033;DHT22;24794;51.982;5.878;2022-07-29T03:19:48;18.20;92.10
39033;DHT22;24794;51.982;5.878;2022-07-29T03:20:48;18.20;92.20
39033;DHT22;24794;51.982;5.878;2022-07-29T03:21:49;18.20;92.30
39033;DHT22;24794;51.982;5.878;2022-07-29T03:22:51;18.20;92.30
39033;DHT22;24794;51.982;5.878;2022-07-29T03:23:51;18.10;92.70
39033;DHT22;24794;51.982;5.878;2022-07-29T03:24:52;18.10;92.50
39033;DHT22;24794;51.982;5.878;2022-07-29T03:25:53;18.10;92.60
39033;DHT22;24794;51.982;5.878;2022-07-29T03:26:55;18.10;92.60
39033;DHT22;24794;51.982;5.878;2022-07-29T03:27:55;18.10;92.60
39033;DHT22;24794;51.982;5.878;2022-07-29T03:28:56;18.00;92.60
39033;DHT22;24794;51.982;5.878;2022-07-29T03:29:57;18.00;92.80
39033;DHT22;24794;51.982;5.878;2022-07-29T03:30:57;18.00;92.90
39033;DHT22;24794;51.982;5.878;2022-07-29T03:31:58;17.90;93.00
39033;DHT22;24794;51.982;5.878;2022-07-29T03:32:59;17.90;93.10
39033;DHT22;24794;51.982;5.878;2022-07-29T03:33:59;17.90;93.10
39033;DHT22;24794;51.982;5.878;2022-07-29T03:35:00;17.80;93.10
39033;DHT22;24794;51.982;5.878;2022-07-29T03:36:01;17.80;93.20
39033;DHT22;24794;51.982;5.878;2022-07-29T03:37:02;17.80;93.40
39033;DHT22;24794;51.982;5.878;2022-07-29T03:38:03;17.70;93.40
39033;DHT22;24794;51.982;5.878;2022-07-29T03:39:04;17.80;93.40
39033;DHT22;24794;51.982;5.878;2022-07-29T03:40:14;17.70;93.50
39033;DHT22;24794;51.982;5.878;2022-07-29T03:41:16;17.60;93.50
39033;DHT22;24794;51.982;5.878;2022-07-29T03:42:18;17.60;93.50
39033;DHT22;24794;51.982;5.878;2022-07-29T03:43:20;17.60;93.60
39033;DHT22;24794;51.982;5.878;2022-07-29T03:44:22;17.50;93.70
39033;DHT22;24794;51.982;5.878;2022-07-29T03:45:25;17.50;93.80
39033;DHT22;24794;51.982;5.878;2022-07-29T03:46:28;17.50;93.90
39033;DHT22;24794;51.982;5.878;2022-07-29T03:47:33;17.50;94.00
39033;DHT22;24794;51.982;5.878;2022-07-29T03:48:38;17.40;94.00
39033;DHT22;24794;51.982;5.878;2022-07-29T03:49:40;17.40;94.10
39033;DHT22;24794;51.982;5.878;2022-07-29T03:50:41;17.40;94.20
39033;DHT22;24794;51.982;5.878;2022-07-29T03:51:42;17.40;94.30
39033;DHT22;24794;51.982;5.878;2022-07-29T03:52:43;17.40;94.40
39033;DHT22;24794;51.982;5.878;2022-07-29T03:53:44;17.30;94.40
39033;DHT22;24794;51.982;5.878;2022-07-29T03:54:45;17.30;94.50
39033;DHT22;24794;51.982;5.878;2022-07-29T03:55:50;17.40;94.50
39033;DHT22;24794;51.982;5.878;2022-07-29T03:56:53;17.30;94.60
39033;DHT22;24794;51.982;5.878;2022-07-29T03:57:55;17.30;94.60
39033;DHT22;24794;51.982;5.878;2022-07-29T03:58:57;17.30;94.60
39033;DHT22;24794;51.982;5.878;2022-07-29T04:00:00;17.30;94.60
39033;DHT22;24794;51.982;5.878;2022-07-29T04:01:01;17.30;94.70
39033;DHT22;24794;51.982;5.878;2022-07-29T04:02:03;17.30;94.80
39033;DHT22;24794;51.982;5.878;2022-07-29T04:03:05;17.30;94.80
39033;DHT22;24794;51.982;5.878;2022-07-29T04:04:05;17.30;94.90
39033;DHT22;24794;51.982;5.878;2022-07-29T04:05:12;17.30;95.00
39033;DHT22;24794;51.982;5.878;2022-07-29T04:06:13;17.30;95.00
39033;DHT22;24794;51.982;5.878;2022-07-29T04:07:14;17.30;95.00
39033;DHT22;24794;51.982;5.878;2022-07-29T04:08:15;17.30;95.00
39033;DHT22;24794;51.982;5.878;2022-07-29T04:09:15;17.20;95.00
39033;DHT22;24794;51.982;5.878;2022-07-29T04:10:16;17.20;95.10
39033;DHT22;24794;51.982;5.878;2022-07-29T04:11:17;17.20;95.10
39033;DHT22;24794;51.982;5.878;2022-07-29T04:12:21;17.10;95.10
39033;DHT22;24794;51.982;5.878;2022-07-29T04:13:21;17.10;95.20
39033;DHT22;24794;51.982;5.878;2022-07-29T04:14:22;17.10;95.30
39033;DHT22;24794;51.982;5.878;2022-07-29T04:15:23;17.10;95.30
39033;DHT22;24794;51.982;5.878;2022-07-29T04:16:23;17.10;95.40
39033;DHT22;24794;51.982;5.878;2022-07-29T04:17:24;17.00;95.50
39033;DHT22;24794;51.982;5.878;2022-07-29T04:18:24;17.00;95.50
39033;DHT22;24794;51.982;5.878;2022-07-29T04:19:25;17.00;95.50
39033;DHT22;24794;51.982;5.878;2022-07-29T04:20:26;17.00;95.50
39033;DHT22;24794;51.982;5.878;2022-07-29T04:21:26;17.00;95.70
39033;DHT22;24794;51.982;5.878;2022-07-29T04:22:27;17.00;95.50
39033;DHT22;24794;51.982;5.878;2022-07-29T04:23:29;17.00;95.50
39033;DHT22;24794;51.982;5.878;2022-07-29T04:24:32;16.90;95.50
39033;DHT22;24794;51.982;5.878;2022-07-29T04:25:33;16.90;95.50
39033;DHT22;24794;51.982;5.878;2022-07-29T04:26:36;16.90;95.50
39033;DHT22;24794;51.982;5.878;2022-07-29T04:27:37;16.90;95.40
39033;DHT22;24794;51.982;5.878;2022-07-29T04:28:57;16.90;95.50
39033;DHT22;24794;51.982;5.878;2022-07-29T04:29:58;16.80;95.70
39033;DHT22;24794;51.982;5.878;2022-07-29T04:30:58;16.70;95.80
39033;DHT22;24794;51.982;5.878;2022-07-29T04:31:59;16.70;95.80
39033;DHT22;24794;51.982;5.878;2022-07-29T04:33:01;16.60;95.90
39033;DHT22;24794;51.982;5.878;2022-07-29T04:34:01;16.50;96.30
39033;DHT22;24794;51.982;5.878;2022-07-29T04:35:02;16.50;96.10
39033;DHT22;24794;51.982;5.878;2022-07-29T04:36:03;16.50;96.30
39033;DHT22;24794;51.982;5.878;2022-07-29T04:37:03;16.50;96.40
39033;DHT22;24794;51.982;5.878;2022-07-29T04:38:05;16.60;96.50
39033;DHT22;24794;51.982;5.878;2022-07-29T04:39:06;16.60;96.50
39033;DHT22;24794;51.982;5.878;2022-07-29T04:40:07;16.60;96.50
39033;DHT22;24794;51.982;5.878;2022-07-29T04:41:08;16.60;96.60
39033;DHT22;24794;51.982;5.878;2022-07-29T04:42:08;16.70;96.60
39033;DHT22;24794;51.982;5.878;2022-07-29T04:43:09;16.70;96.60
39033;DHT22;24794;51.982;5.878;2022-07-29T04:44:10;16.70;96.60
39033;DHT22;24794;51.982;5.878;2022-07-29T04:45:10;16.70;96.50
39033;DHT22;24794;51.982;5.878;2022-07-29T04:46:11;16.70;96.50
39033;DHT22;24794;51.982;5.878;2022-07-29T04:47:11;16.80;96.50
39033;DHT22;24794;51.982;5.878;2022-07-29T04:48:12;16.70;96.40
39033;DHT22;24794;51.982;5.878;2022-07-29T04:49:12;16.80;96.40
39033;DHT22;24794;51.982;5.878;2022-07-29T04:50:13;16.70;96.30
39033;DHT22;24794;51.982;5.878;2022-07-29T04:51:16;16.70;96.30
39033;DHT22;24794;51.982;5.878;2022-07-29T04:52:17;16.70;96.60
39033;DHT22;24794;51.982;5.878;2022-07-29T04:53:18;16.70;96.30
39033;DHT22;24794;51.982;5.878;2022-07-29T04:54:18;16.70;96.40
39033;DHT22;24794;51.982;5.878;2022-07-29T04:55:20;16.70;96.40
39033;DHT22;24794;51.982;5.878;2022-07-29T04:56:21;16.70;96.70
39033;DHT22;24794;51.982;5.878;2022-07-29T04:57:22;16.70;96.40
39033;DHT22;24794;51.982;5.878;2022-07-29T04:58:22;16.70;96.40
39033;DHT22;24794;51.982;5.878;2022-07-29T04:59:23;16.70;96.50
39033;DHT22;24794;51.982;5.878;2022-07-29T05:00:25;16.70;96.40
39033;DHT22;24794;51.982;5.878;2022-07-29T05:01:25;16.70;96.50
39033;DHT22;24794;51.982;5.878;2022-07-29T05:02:26;16.70;96.50
39033;DHT22;24794;51.982;5.878;2022-07-29T05:03:27;16.70;96.50
39033;DHT22;24794;51.982;5.878;2022-07-29T05:04:27;16.70;96.50
39033;DHT22;24794;51.982;5.878;2022-07-29T05:05:28;16.70;96.50
39033;DHT22;24794;51.982;5.878;2022-07-29T05:06:28;16.80;96.50
39033;DHT22;24794;51.982;5.878;2022-07-29T05:07:29;16.70;96.50
39033;DHT22;24794;51.982;5.878;2022-07-29T05:08:29;16.80;96.50
39033;DHT22;24794;51.982;5.878;2022-07-29T05:09:30;16.80;96.40
39033;DHT22;24794;51.982;5.878;2022-07-29T05:10:32;16.80;96.40
39033;DHT22;24794;51.982;5.878;2022-07-29T05:11:36;16.80;96.30
39033;DHT22;24794;51.982;5.878;2022-07-29T05:12:36;16.80;96.30
39033;DHT22;24794;51.982;5.878;2022-07-29T05:13:37;16.80;96.30
39033;DHT22;24794;51.982;5.878;2022-07-29T05:14:37;16.80;96.30
39033;DHT22;24794;51.982;5.878;2022-07-29T05:15:38;16.80;96.20
39033;DHT22;24794;51.982;5.878;2022-07-29T05:16:39;16.70;96.20
39033;DHT22;24794;51.982;5.878;2022-07-29T05:17:40;16.80;96.30
39033;DHT22;24794;51.982;5.878;2022-07-29T05:18:41;16.70;96.30
39033;DHT22;24794;51.982;5.878;2022-07-29T05:19:42;16.70;96.30
39033;DHT22;24794;51.982;5.878;2022-07-29T05:20:42;16.70;96.40
39033;DHT22;24794;51.982;5.878;2022-07-29T05:21:44;16.70;96.40
39033;DHT22;24794;51.982;5.878;2022-07-29T05:22:45;16.70;96.40
39033;DHT22;24794;51.982;5.878;2022-07-29T05:23:45;16.70;96.50
39033;DHT22;24794;51.982;5.878;2022-07-29T05:24:46;16.70;96.40
39033;DHT22;24794;51.982;5.878;2022-07-29T05:25:47;16.70;96.40
39033;DHT22;24794;51.982;5.878;2022-07-29T05:26:47;16.80;96.40
39033;DHT22;24794;51.982;5.878;2022-07-29T05:27:48;16.80;96.40
39033;DHT22;24794;51.982;5.878;2022-07-29T05:28:49;16.80;96.40
39033;DHT22;24794;51.982;5.878;2022-07-29T05:29:49;16.80;96.40
39033;DHT22;24794;51.982;5.878;2022-07-29T05:30:50;16.80;96.40
39033;DHT22;24794;51.982;5.878;2022-07-29T05:31:50;16.80;96.30
39033;DHT22;24794;51.982;5.878;2022-07-29T05:32:53;16.80;96.30
39033;DHT22;24794;51.982;5.878;2022-07-29T05:33:53;16.80;96.20
39033;DHT22;24794;51.982;5.878;2022-07-29T05:34:54;16.80;96.20
39033;DHT22;24794;51.982;5.878;2022-07-29T05:35:54;16.80;96.20
39033;DHT22;24794;51.982;5.878;2022-07-29T05:36:55;16.80;96.20
39033;DHT22;24794;51.982;5.878;2022-07-29T05:37:55;16.90;96.40
39033;DHT22;24794;51.982;5.878;2022-07-29T05:38:56;16.80;96.40
39033;DHT22;24794;51.982;5.878;2022-07-29T05:39:56;16.80;96.40
39033;DHT22;24794;51.982;5.878;2022-07-29T05:40:58;16.80;96.40
39033;DHT22;24794;51.982;5.878;2022-07-29T05:41:59;16.80;96.40
39033;DHT22;24794;51.982;5.878;2022-07-29T05:43:00;16.80;96.50
39033;DHT22;24794;51.982;5.878;2022-07-29T05:44:00;16.80;96.40
39033;DHT22;24794;51.982;5.878;2022-07-29T05:45:01;16.70;96.40
39033;DHT22;24794;51.982;5.878;2022-07-29T05:46:02;16.70;96.50
39033;DHT22;24794;51.982;5.878;2022-07-29T05:47:03;16.70;96.50
39033;DHT22;24794;51.982;5.878;2022-07-29T05:48:03;16.70;96.50
39033;DHT22;24794;51.982;5.878;2022-07-29T05:49:04;16.70;96.40
39033;DHT22;24794;51.982;5.878;2022-07-29T05:50:07;16.70;96.40
39033;DHT22;24794;51.982;5.878;2022-07-29T05:51:07;16.70;96.50
39033;DHT22;24794;51.982;5.878;2022-07-29T05:52:08;16.70;96.60
39033;DHT22;24794;51.982;5.878;2022-07-29T05:53:09;16.70;96.60
39033;DHT22;24794;51.982;5.878;2022-07-29T05:54:09;16.70;96.60
39033;DHT22;24794;51.982;5.878;2022-07-29T05:55:11;16.70;96.70
39033;DHT22;24794;51.982;5.878;2022-07-29T05:56:11;16.70;96.60
39033;DHT22;24794;51.982;5.878;2022-07-29T05:57:20;16.70;96.60
39033;DHT22;24794;51.982;5.878;2022-07-29T05:58:21;16.70;96.70
39033;DHT22;24794;51.982;5.878;2022-07-29T05:59:21;16.80;96.70
39033;DHT22;24794;51.982;5.878;2022-07-29T06:00:22;16.80;96.60
39033;DHT22;24794;51.982;5.878;2022-07-29T06:01:23;16.80;96.60
39033;DHT22;24794;51.982;5.878;2022-07-29T06:02:23;16.80;96.60
39033;DHT22;24794;51.982;5.878;2022-07-29T06:03:24;16.80;96.60
39033;DHT22;24794;51.982;5.878;2022-07-29T06:04:25;16.80;96.70
39033;DHT22;24794;51.982;5.878;2022-07-29T06:05:25;16.80;96.60
39033;DHT22;24794;51.982;5.878;2022-07-29T06:06:26;16.90;96.60
39033;DHT22;24794;51.982;5.878;2022-07-29T06:07:26;16.90;96.60
39033;DHT22;24794;51.982;5.878;2022-07-29T06:08:27;16.90;96.60
39033;DHT22;24794;51.982;5.878;2022-07-29T06:09:28;16.90;96.60
39033;DHT22;24794;51.982;5.878;2022-07-29T06:10:28;17.00;96.60
39033;DHT22;24794;51.982;5.878;2022-07-29T06:11:29;17.00;96.60
39033;DHT22;24794;51.982;5.878;2022-07-29T06:12:30;17.00;96.50
39033;DHT22;24794;51.982;5.878;2022-07-29T06:13:31;17.00;96.50
39033;DHT22;24794;51.982;5.878;2022-07-29T06:14:31;17.00;96.50
39033;DHT22;24794;51.982;5.878;2022-07-29T06:15:32;17.10;96.50
39033;DHT22;24794;51.982;5.878;2022-07-29T06:16:33;17.10;96.50
39033;DHT22;24794;51.982;5.878;2022-07-29T06:17:34;17.10;96.50
39033;DHT22;24794;51.982;5.878;2022-07-29T06:18:34;17.10;96.60
39033;DHT22;24794;51.982;5.878;2022-07-29T06:19:35;17.20;96.60
39033;DHT22;24794;51.982;5.878;2022-07-29T06:20:36;17.20;96.60
39033;DHT22;24794;51.982;5.878;2022-07-29T06:21:42;17.20;96.60
39033;DHT22;24794;51.982;5.878;2022-07-29T06:22:42;17.20;96.50
39033;DHT22;24794;51.982;5.878;2022-07-29T06:23:44;17.20;96.40
39033;DHT22;24794;51.982;5.878;2022-07-29T06:24:45;17.20;96.30
39033;DHT22;24794;51.982;5.878;2022-07-29T06:25:46;17.30;96.30
39033;DHT22;24794;51.982;5.878;2022-07-29T06:26:46;17.30;96.20
39033;DHT22;24794;51.982;5.878;2022-07-29T06:27:47;17.30;96.20
39033;DHT22;24794;51.982;5.878;2022-07-29T06:28:48;17.30;96.20
39033;DHT22;24794;51.982;5.878;2022-07-29T06:29:48;17.30;96.20
39033;DHT22;24794;51.982;5.878;2022-07-29T06:30:49;17.30;96.30
39033;DHT22;24794;51.982;5.878;2022-07-29T06:31:49;17.30;96.30
39033;DHT22;24794;51.982;5.878;2022-07-29T06:32:50;17.40;96.30
39033;DHT22;24794;51.982;5.878;2022-07-29T06:33:51;17.40;96.20
39033;DHT22;24794;51.982;5.878;2022-07-29T06:34:51;17.40;96.10
39033;DHT22;24794;51.982;5.878;2022-07-29T06:35:52;17.40;96.10
39033;DHT22;24794;51.982;5.878;2022-07-29T06:36:53;17.50;96.10
39033;DHT22;24794;51.982;5.878;2022-07-29T06:37:53;17.40;96.00
39033;DHT22;24794;51.982;5.878;2022-07-29T06:38:54;17.50;96.00
39033;DHT22;24794;51.982;5.878;2022-07-29T06:39:54;17.50;95.80
39033;DHT22;24794;51.982;5.878;2022-07-29T06:41:31;17.50;96.00
39033;DHT22;24794;51.982;5.878;2022-07-29T06:42:31;17.60;95.70
39033;DHT22;24794;51.982;5.878;2022-07-29T06:43:35;17.60;95.70
39033;DHT22;24794;51.982;5.878;2022-07-29T06:44:37;17.60;95.70
39033;DHT22;24794;51.982;5.878;2022-07-29T06:45:38;17.60;95.80
39033;DHT22;24794;51.982;5.878;2022-07-29T06:46:41;17.70;95.90
39033;DHT22;24794;51.982;5.878;2022-07-29T06:47:41;17.70;95.90
39033;DHT22;24794;51.982;5.878;2022-07-29T06:48:42;17.70;95.90
39033;DHT22;24794;51.982;5.878;2022-07-29T06:49:43;17.70;95.90
39033;DHT22;24794;51.982;5.878;2022-07-29T06:50:43;17.80;95.90